createdAt,value
2022-12-11T06:27:53.097Z,21.30
2022-12-11T06:29:56.310Z,15.75
2022-12-11T06:31:59.943Z,26.77
2022-12-11T06:34:02.686Z,24.63
2022-12-11T06:36:12.069Z,32.60
2022-12-11T06:38:15.037Z,26.42
2022-12-11T06:40:17.905Z,32.00
2022-12-11T06:42:22.067Z,32.08
2022-12-11T06:44:25.858Z,36.50
2022-12-11T06:46:28.630Z,31.13
2022-12-11T06:48:31.847Z,31.02
2022-12-11T06:50:34.527Z,28.05
2022-12-11T06:52:38.639Z,31.13
2022-12-11T06:54:42.401Z,31.88
2022-12-11T06:56:45.436Z,30.50
2022-12-11T06:58:49.854Z,33.40
2022-12-11T07:00:52.848Z,30.13
2022-12-11T07:02:55.386Z,29.50
2022-12-11T07:04:58.819Z,28.63
2022-12-11T07:07:01.396Z,28.55
2022-12-11T07:09:07.655Z,30.40
2022-12-11T07:11:16.094Z,27.80
2022-12-11T07:13:18.500Z,19.77
2022-12-11T07:15:21.615Z,28.83
2022-12-11T07:17:24.630Z,33.78
2022-12-11T07:19:27.618Z,37.42
2022-12-11T07:21:30.204Z,28.63
2022-12-11T07:30:43.127Z,33.38
2022-12-11T07:32:46.084Z,34.42
2022-12-11T07:34:53.156Z,40.35
2022-12-11T07:36:56.977Z,38.58
2022-12-11T07:39:01.036Z,37.80
2022-12-11T07:41:09.380Z,45.05
2022-12-11T07:43:12.279Z,38.22
2022-12-11T07:45:15.147Z,33.75
2022-12-11T07:47:17.647Z,31.67
2022-12-11T07:49:20.107Z,33.22
2022-12-11T07:51:28.255Z,35.90
2022-12-11T07:53:30.826Z,35.22
2022-12-11T07:55:33.645Z,30.02
2022-12-11T07:57:36.154Z,29.00
2022-12-11T07:59:38.667Z,32.50
2022-12-11T08:01:43.056Z,34.08
2022-12-11T08:03:45.640Z,35.38
2022-12-11T08:05:52.077Z,33.13
2022-12-11T08:07:54.836Z,28.95
2022-12-11T08:09:57.346Z,23.50
2022-12-11T08:11:59.827Z,31.58
2022-12-11T08:14:02.968Z,35.47
2022-12-11T08:16:10.757Z,33.92
2022-12-11T08:18:13.525Z,34.38
2022-12-11T08:20:16.128Z,33.17
2022-12-11T08:22:18.575Z,32.00
2022-12-11T08:24:21.154Z,27.02
2022-12-11T08:26:26.669Z,33.05
2022-12-11T08:28:29.146Z,32.00
2022-12-11T08:58:19.945Z,25.67
2022-12-11T09:00:23.816Z,31.63
2022-12-11T09:02:26.564Z,17.45
2022-12-11T09:04:29.454Z,21.90
2022-12-11T09:06:34.149Z,23.80
2022-12-11T09:08:36.786Z,23.15
2022-12-11T09:10:39.245Z,24.45
2022-12-11T09:12:41.808Z,23.45
2022-12-11T09:14:44.827Z,21.48
2022-12-11T09:16:48.166Z,16.55
2022-12-11T09:18:54.056Z,25.65
2022-12-11T09:21:04.408Z,41.60
2022-12-11T09:23:07.378Z,35.78
2022-12-11T09:25:11.479Z,26.13
2022-12-11T09:27:14.088Z,25.05
2022-12-11T09:29:16.406Z,30.58
2022-12-11T09:31:21.624Z,25.65
2022-12-11T09:33:24.448Z,17.45
2022-12-11T09:35:28.847Z,28.23
2022-12-11T09:37:36.030Z,27.98
2022-12-11T09:39:38.737Z,17.42
2022-12-11T09:42:13.477Z,21.48
2022-12-11T09:44:33.998Z,23.35
2022-12-11T09:46:38.301Z,22.42
2022-12-11T09:48:44.357Z,21.92
2022-12-11T09:50:50.688Z,20.67
2022-12-11T09:53:15.225Z,26.85
2022-12-11T09:55:27.166Z,36.78
2022-12-11T09:58:00.137Z,24.48
2022-12-11T10:00:16.286Z,29.75
2022-12-11T10:02:56.655Z,28.58
2022-12-11T10:05:33.077Z,26.67
2022-12-11T10:07:37.526Z,28.85
2022-12-11T10:10:24.718Z,27.95
2022-12-11T10:12:28.236Z,26.88
2022-12-11T10:14:42.466Z,31.15
2022-12-11T10:31:51.601Z,41.83
2022-12-11T10:33:58.493Z,34.55
2022-12-11T10:36:01.555Z,27.27
2022-12-11T10:38:28.545Z,30.70
2022-12-11T10:40:34.798Z,20.27
2022-12-11T10:42:41.247Z,24.10
2022-12-11T10:45:05.716Z,21.58
2022-12-11T10:47:16.368Z,21.58
2022-12-11T10:49:28.958Z,23.65
2022-12-11T10:51:31.528Z,22.52
2022-12-11T10:53:35.647Z,27.23
2022-12-11T10:55:46.237Z,24.80
2022-12-11T10:58:00.478Z,25.90
2022-12-11T11:00:08.977Z,24.48
2022-12-11T11:02:27.144Z,26.80
2022-12-11T11:04:39.068Z,26.65
2022-12-11T11:06:41.957Z,22.65
2022-12-11T11:08:47.127Z,24.17
2022-12-11T11:10:58.626Z,23.88
2022-12-11T11:13:03.736Z,36.88
2022-12-11T11:15:23.709Z,95.50
2022-12-11T12:08:29.261Z,28.83
2022-12-11T12:13:47.671Z,29.45
2022-12-11T12:15:56.779Z,24.58
2022-12-11T12:18:49.886Z,34.80
2022-12-11T12:23:29.670Z,24.52
2022-12-11T12:25:48.597Z,24.52
2022-12-11T12:28:04.478Z,23.33
2022-12-11T12:30:27.508Z,20.75
2022-12-11T12:34:51.667Z,20.88
2022-12-11T12:37:22.016Z,22.88
2022-12-11T12:39:56.677Z,21.85
2022-12-11T13:05:35.755Z,29.23
2022-12-11T13:07:53.968Z,31.08
2022-12-11T13:10:24.802Z,33.92
2022-12-11T13:12:46.042Z,22.08
2022-12-11T13:14:58.224Z,40.35
2022-12-11T13:19:27.325Z,33.15
2022-12-11T13:21:36.725Z,22.77
2022-12-11T13:23:41.242Z,24.98
2022-12-11T13:25:57.092Z,24.48
2022-12-11T13:28:22.753Z,30.92
2022-12-11T13:30:27.831Z,32.60
2022-12-11T13:32:33.054Z,32.35
2022-12-11T13:34:43.120Z,39.40
2022-12-11T13:36:53.248Z,33.25
2022-12-11T13:39:07.240Z,34.75
2022-12-11T13:41:18.711Z,33.33
2022-12-11T13:43:35.051Z,39.53
2022-12-11T13:46:03.897Z,35.90
2022-12-11T13:48:27.842Z,38.92
2022-12-11T13:50:34.533Z,39.38
2022-12-11T13:52:37.493Z,31.23
2022-12-11T13:54:50.134Z,33.92
2022-12-11T13:57:05.793Z,37.10
2022-12-11T13:59:24.711Z,39.80
2022-12-11T15:15:49.653Z,17.30
2022-12-11T15:17:53.002Z,18.92
2022-12-11T15:20:04.143Z,21.65
2022-12-11T15:22:09.290Z,27.95
2022-12-11T15:24:24.392Z,29.05
2022-12-11T15:26:48.200Z,28.23
2022-12-11T15:29:00.895Z,28.27
2022-12-11T15:31:23.901Z,31.70
2022-12-11T15:33:31.147Z,23.48
2022-12-11T15:35:38.224Z,25.75
2022-12-11T15:37:42.301Z,30.08
2022-12-11T15:39:45.982Z,37.55
2022-12-11T15:41:48.613Z,27.52
2022-12-11T15:43:59.236Z,24.88
2022-12-11T15:46:03.274Z,20.02
2022-12-11T15:48:15.713Z,27.02
2022-12-11T15:50:20.840Z,25.70
2022-12-11T15:52:27.711Z,24.58
2022-12-11T15:54:36.850Z,33.85
2022-12-11T15:56:41.922Z,31.85
2022-12-11T15:58:52.180Z,37.28
2022-12-11T16:00:55.483Z,35.20
2022-12-11T16:03:01.055Z,34.63
2022-12-11T16:05:17.364Z,40.08
2022-12-11T16:07:25.831Z,37.10
2022-12-11T16:09:28.381Z,46.67
2022-12-11T16:11:32.464Z,62.80
2022-12-11T16:13:37.501Z,76.85
2022-12-11T16:15:57.920Z,107.20
2022-12-11T16:18:06.460Z,171.75
2022-12-11T16:20:12.732Z,94.15
2022-12-11T16:22:15.761Z,53.80
2022-12-11T16:24:18.863Z,44.22
2022-12-11T16:26:22.280Z,45.85
2022-12-11T16:28:25.332Z,31.90
2022-12-11T19:04:07.880Z,10.40
2022-12-11T19:06:22.033Z,6.55
2022-12-11T19:08:26.509Z,6.50
2022-12-11T19:10:31.570Z,8.30
2022-12-11T19:12:36.541Z,7.32
2022-12-11T19:14:42.111Z,9.70
2022-12-11T19:16:48.521Z,7.78
2022-12-11T19:18:52.962Z,6.65
2022-12-11T19:21:08.119Z,9.52
2022-12-11T19:23:12.945Z,7.72
2022-12-11T19:25:17.160Z,4.25
2022-12-11T19:27:22.192Z,7.78
2022-12-11T19:29:35.401Z,6.40
2022-12-11T19:31:39.835Z,9.70
2022-12-11T19:33:44.920Z,6.82
2022-12-11T19:35:49.391Z,7.75
2022-12-11T19:37:59.982Z,6.30
2022-12-11T19:40:03.950Z,7.50
2022-12-11T19:42:07.982Z,5.25
2022-12-11T19:44:12.381Z,12.02
2022-12-11T19:46:19.052Z,5.78
2022-12-11T19:48:23.423Z,7.32
2022-12-11T19:57:40.373Z,9.35
2022-12-11T19:59:44.701Z,6.60
2022-12-11T20:01:51.912Z,10.13
2022-12-11T20:03:58.452Z,6.68
2022-12-11T20:06:08.722Z,8.32
2022-12-11T20:08:42.997Z,6.43
2022-12-11T20:10:39.842Z,10.43
2022-12-11T20:12:44.322Z,10.05
2022-12-11T20:14:50.375Z,15.18
2022-12-11T20:17:13.601Z,12.90
2022-12-11T20:19:18.432Z,9.82
2022-12-11T20:21:22.890Z,9.05
2022-12-11T20:23:26.831Z,12.25
2022-12-11T20:25:31.059Z,13.50
2022-12-11T20:27:35.368Z,11.75
2022-12-11T20:29:42.034Z,11.93
2022-12-11T20:31:47.652Z,15.13
2022-12-11T20:33:52.589Z,7.55
2022-12-11T20:35:57.657Z,10.80
2022-12-11T20:38:01.926Z,9.40
2022-12-11T20:40:07.287Z,18.05
2022-12-11T20:42:12.596Z,11.50
2022-12-11T20:44:18.178Z,10.38
2022-12-11T20:46:25.333Z,15.15
2022-12-11T20:48:30.556Z,12.07
2022-12-11T20:50:35.589Z,12.15
2022-12-11T20:52:40.579Z,12.57
2022-12-11T20:54:45.018Z,7.05
2022-12-11T20:56:49.886Z,10.95
2022-12-11T20:58:56.743Z,6.45
2022-12-11T21:01:01.520Z,7.32
2022-12-11T21:03:06.950Z,6.85
2022-12-11T21:05:11.770Z,9.13
2022-12-11T21:07:15.825Z,9.70
2022-12-11T21:09:20.256Z,11.00
2022-12-11T21:11:25.315Z,7.90
2022-12-11T21:13:29.528Z,11.65
2022-12-11T21:15:40.198Z,8.35
2022-12-11T21:17:44.336Z,9.68
2022-12-11T21:19:49.361Z,6.43
2022-12-11T21:21:53.835Z,13.23
2022-12-11T21:23:59.137Z,13.40
2022-12-11T21:26:05.073Z,9.35
2022-12-11T21:28:09.825Z,13.02
2022-12-11T21:30:15.756Z,10.95
2022-12-11T21:32:21.039Z,14.25
2022-12-11T21:34:25.936Z,12.88
2022-12-11T21:36:30.587Z,11.45
2022-12-11T21:38:35.276Z,11.38
2022-12-11T21:40:39.819Z,15.85
2022-12-11T21:42:43.536Z,7.60
